Helena, MT

2:11 PM MDT on October 25, 2014 (GMT -0600)
Helena 2-North | Change Station
CLOSE
Current Station
Personal Weather Station
Location: Helena, MT
Elevation: 3825 ft
Nearby Weather Stations

Elev 3825 ft 46.62 °N, 112.04 °W | Updated 11 minutes ago

Clear
Clear
51.0 °F
Feels Like 51.0 °F
N
0.0
Wind Variable Wind from NNW
Gusts 3.0 mph

Today
High -- | Low -- °F
--% Chance of Precip.
Yesterday
High -- | Low -- °F
Precip. -- in
7:59 AM 6:23 PM
Waxing Crescent, 4% visible
Pressure 29.90 in
Visibility 10.0 miles
Clouds Clear
Dew Point 44 °F
Humidity 76%
Rainfall 0.00 in
Snow Depth Not available.
UV 3 out of 12
Pollen 2.20 out of 12
Air Quality Not available.
Flu Activity No Activity
METAR KHLN 251953Z 34003KT 10SM CLR 11/05 A2985 RMK AO2 SLP124 T01110050

More Conditions Fewer Conditions

Pressure 29.90 in
Visibility 10.0 miles
Clouds Clear
Dew Point 44 °F
Humidity 76%
Rainfall 0.00 in
Snow Depth Not available.
UV 3 out of 12
Pollen 2.20 out of 12
Air Quality Not available.
Flu Activity No Activity
METAR KHLN 251953Z 34003KT 10SM CLR 11/05 A2985 RMK AO2 SLP124 T01110050

More Conditions Fewer Conditions

10-Day Weather Forecast

Almanac

Astronomy

Oct. 25, 2014 Rise Set
Actual Time 7:59 AM MDT 6:23 PM MDT
Civil Twilight 7:28 AM MDT 6:54 PM MDT
Nautical Twilight 6:53 AM MDT 7:29 PM MDT
Astronomical Twilight 6:18 AM MDT 8:04 PM MDT
Moon 9:47 AM MDT 7:44 PM MDT
Length of Visible Light 11h 25m
Length of Day
10h 23m
Tomorrow will be 3m 6s shorter.
Waxing Crescent, 4% of the Moon is Illuminated
Today
Waxing Crescent
Oct 30
First Quarter
Nov 6
Full
Nov 14
Last Quarter
Nov 22
New

Today's Extremes

State Highs State Lows

Community

WunderPhotos

Upload Photos

1,764,976 photos uploaded!

Nearby

Snow Depth

Station Depth Elevation
Nevada Ridge 0 in 7020 ft
Copper Bottom 0 in 5200 ft
Stringer Creek 0 in 6550 ft
Onion Park 0 in 7410 ft
Warm Springs 0 in 7800 ft

Earthquake Activity

City Distance Mag. Time & Date
No recent earthquake activity has been reported nearby.
Minimum magnitude displayed is 2.5.

Coastal Water Temperatures

Place Temperature
No Stations Reporting

Nearby Weather Stations